sensor_id;sensor_type;location;lat;lon;timestamp;pressure;altitude;pressure_sealevel;temperature;humidity
59073;BME280;44859;51.934;15.554;2023-05-25T00:00:21;100421.73;;;8.45;90.02
59073;BME280;44859;51.934;15.554;2023-05-25T00:03:31;100418.60;;;8.43;90.16
59073;BME280;44859;51.934;15.554;2023-05-25T00:05:59;100416.15;;;8.43;90.22
59073;BME280;44859;51.934;15.554;2023-05-25T00:09:29;100415.12;;;8.42;90.33
59073;BME280;44859;51.934;15.554;2023-05-25T00:12:25;100420.05;;;8.41;90.62
59073;BME280;44859;51.934;15.554;2023-05-25T00:15:30;100417.84;;;8.40;90.67
59073;BME280;44859;51.934;15.554;2023-05-25T00:21:08;100415.73;;;8.40;90.05
59073;BME280;44859;51.934;15.554;2023-05-25T00:26:50;100421.21;;;8.44;89.65
59073;BME280;44859;51.934;15.554;2023-05-25T00:29:34;100423.13;;;8.45;89.93
59073;BME280;44859;51.934;15.554;2023-05-25T00:32:23;100427.32;;;8.45;89.89
59073;BME280;44859;51.934;15.554;2023-05-25T00:34:57;100426.96;;;8.45;89.48
59073;BME280;44859;51.934;15.554;2023-05-25T00:37:25;100426.73;;;8.47;89.84
59073;BME280;44859;51.934;15.554;2023-05-25T00:39:57;100427.77;;;8.48;89.66
59073;BME280;44859;51.934;15.554;2023-05-25T00:42:25;100429.51;;;8.48;89.54
59073;BME280;44859;51.934;15.554;2023-05-25T00:44:55;100428.33;;;8.47;89.62
59073;BME280;44859;51.934;15.554;2023-05-25T00:47:50;100429.52;;;8.48;89.73
59073;BME280;44859;51.934;15.554;2023-05-25T00:50:37;100434.45;;;8.47;89.67
59073;BME280;44859;51.934;15.554;2023-05-25T00:53:15;100435.38;;;8.45;89.56
59073;BME280;44859;51.934;15.554;2023-05-25T00:56:14;100441.73;;;8.42;89.58
59073;BME280;44859;51.934;15.554;2023-05-25T00:59:06;100438.29;;;8.40;89.56
59073;BME280;44859;51.934;15.554;2023-05-25T01:05:19;100443.23;;;8.39;89.61
59073;BME280;44859;51.934;15.554;2023-05-25T01:08:13;100444.52;;;8.37;89.88
59073;BME280;44859;51.934;15.554;2023-05-25T01:11:31;100441.98;;;8.34;90.06
59073;BME280;44859;51.934;15.554;2023-05-25T01:14:30;100447.58;;;8.34;89.99
59073;BME280;44859;51.934;15.554;2023-05-25T01:17:00;100449.02;;;8.32;90.17
59073;BME280;44859;51.934;15.554;2023-05-25T01:19:31;100450.26;;;8.32;90.22
59073;BME280;44859;51.934;15.554;2023-05-25T01:22:14;100447.46;;;8.32;90.22
59073;BME280;44859;51.934;15.554;2023-05-25T01:24:49;100445.53;;;8.32;89.66
59073;BME280;44859;51.934;15.554;2023-05-25T01:27:37;100451.92;;;8.35;90.10
59073;BME280;44859;51.934;15.554;2023-05-25T01:30:15;100448.89;;;8.37;90.18
59073;BME280;44859;51.934;15.554;2023-05-25T01:32:48;100448.47;;;8.39;90.45
59073;BME280;44859;51.934;15.554;2023-05-25T01:35:28;100448.60;;;8.41;90.55
59073;BME280;44859;51.934;15.554;2023-05-25T01:37:57;100446.27;;;8.44;90.14
59073;BME280;44859;51.934;15.554;2023-05-25T01:40:29;100446.02;;;8.46;89.85
59073;BME280;44859;51.934;15.554;2023-05-25T01:43:11;100448.21;;;8.49;90.05
59073;BME280;44859;51.934;15.554;2023-05-25T01:45:49;100450.08;;;8.51;90.17
59073;BME280;44859;51.934;15.554;2023-05-25T01:48:44;100448.42;;;8.54;90.05
59073;BME280;44859;51.934;15.554;2023-05-25T01:51:28;100445.70;;;8.57;89.79
59073;BME280;44859;51.934;15.554;2023-05-25T02:00:46;100449.74;;;8.68;89.64
59073;BME280;44859;51.934;15.554;2023-05-25T02:03:18;100454.34;;;8.73;90.01
59073;BME280;44859;51.934;15.554;2023-05-25T02:06:02;100459.18;;;8.74;90.00
59073;BME280;44859;51.934;15.554;2023-05-25T02:08:31;100455.61;;;8.77;89.40
59073;BME280;44859;51.934;15.554;2023-05-25T02:11:21;100453.07;;;8.80;90.03
59073;BME280;44859;51.934;15.554;2023-05-25T02:14:08;100453.55;;;8.87;89.52
59073;BME280;44859;51.934;15.554;2023-05-25T02:16:59;100447.12;;;8.91;89.50
59073;BME280;44859;51.934;15.554;2023-05-25T02:19:33;100447.32;;;8.95;89.10
59073;BME280;44859;51.934;15.554;2023-05-25T02:22:05;100452.67;;;8.97;88.98
59073;BME280;44859;51.934;15.554;2023-05-25T02:24:37;100452.61;;;8.94;88.64
59073;BME280;44859;51.934;15.554;2023-05-25T02:27:05;100454.30;;;8.91;88.86
59073;BME280;44859;51.934;15.554;2023-05-25T02:29:53;100453.66;;;8.89;88.57
59073;BME280;44859;51.934;15.554;2023-05-25T02:32:21;100449.70;;;8.87;88.46
59073;BME280;44859;51.934;15.554;2023-05-25T02:35:51;100451.36;;;8.84;88.55
59073;BME280;44859;51.934;15.554;2023-05-25T02:38:22;100451.77;;;8.82;88.67
59073;BME280;44859;51.934;15.554;2023-05-25T02:41:36;100450.35;;;8.77;88.47
59073;BME280;44859;51.934;15.554;2023-05-25T02:44:48;100441.19;;;8.74;88.14
59073;BME280;44859;51.934;15.554;2023-05-25T02:47:46;100441.24;;;8.71;88.61
59073;BME280;44859;51.934;15.554;2023-05-25T02:50:15;100437.27;;;8.70;88.37
59073;BME280;44859;51.934;15.554;2023-05-25T02:52:46;100436.91;;;8.70;88.43
59073;BME280;44859;51.934;15.554;2023-05-25T02:55:20;100440.23;;;8.70;88.90
59073;BME280;44859;51.934;15.554;2023-05-25T02:57:59;100436.45;;;8.73;88.84
59073;BME280;44859;51.934;15.554;2023-05-25T03:00:38;100435.12;;;8.77;88.71
59073;BME280;44859;51.934;15.554;2023-05-25T03:05:59;100439.23;;;8.85;88.77
59073;BME280;44859;51.934;15.554;2023-05-25T03:08:52;100435.64;;;8.88;88.75
59073;BME280;44859;51.934;15.554;2023-05-25T03:11:48;100439.96;;;8.90;88.29
59073;BME280;44859;51.934;15.554;2023-05-25T03:18:27;100442.23;;;8.91;88.28
59073;BME280;44859;51.934;15.554;2023-05-25T03:20:58;100442.77;;;8.90;88.29
59073;BME280;44859;51.934;15.554;2023-05-25T03:23:37;100439.80;;;8.89;88.06
59073;BME280;44859;51.934;15.554;2023-05-25T03:26:36;100443.27;;;8.91;87.94
59073;BME280;44859;51.934;15.554;2023-05-25T03:29:56;100446.20;;;8.92;88.37
59073;BME280;44859;51.934;15.554;2023-05-25T03:32:33;100449.81;;;8.94;88.33
59073;BME280;44859;51.934;15.554;2023-05-25T03:35:04;100447.48;;;8.96;88.33
59073;BME280;44859;51.934;15.554;2023-05-25T03:37:56;100448.58;;;9.00;88.16
59073;BME280;44859;51.934;15.554;2023-05-25T03:43:16;100451.45;;;9.09;88.53
59073;BME280;44859;51.934;15.554;2023-05-25T03:45:57;100452.17;;;9.14;88.02
59073;BME280;44859;51.934;15.554;2023-05-25T03:48:37;100455.34;;;9.19;88.50
59073;BME280;44859;51.934;15.554;2023-05-25T03:51:31;100457.80;;;9.24;88.17
59073;BME280;44859;51.934;15.554;2023-05-25T03:54:20;100462.14;;;9.31;88.06
59073;BME280;44859;51.934;15.554;2023-05-25T03:57:15;100463.45;;;9.39;87.77
59073;BME280;44859;51.934;15.554;2023-05-25T04:00:14;100462.86;;;9.46;87.81
59073;BME280;44859;51.934;15.554;2023-05-25T04:03:20;100466.77;;;9.55;87.56
59073;BME280;44859;51.934;15.554;2023-05-25T04:07:05;100466.61;;;9.60;87.40
59073;BME280;44859;51.934;15.554;2023-05-25T04:10:17;100471.27;;;9.67;87.47
59073;BME280;44859;51.934;15.554;2023-05-25T04:13:29;100468.07;;;9.79;87.34
59073;BME280;44859;51.934;15.554;2023-05-25T04:16:34;100465.17;;;9.86;87.28
59073;BME280;44859;51.934;15.554;2023-05-25T04:23:00;100463.61;;;9.96;86.57
59073;BME280;44859;51.934;15.554;2023-05-25T04:26:07;100466.01;;;9.98;86.34
59073;BME280;44859;51.934;15.554;2023-05-25T04:28:52;100466.13;;;9.99;86.62
59073;BME280;44859;51.934;15.554;2023-05-25T04:31:54;100464.88;;;10.00;86.34
59073;BME280;44859;51.934;15.554;2023-05-25T04:35:05;100463.01;;;10.03;86.73
59073;BME280;44859;51.934;15.554;2023-05-25T04:41:41;100453.48;;;10.14;86.21
59073;BME280;44859;51.934;15.554;2023-05-25T04:44:52;100450.34;;;10.23;86.12
59073;BME280;44859;51.934;15.554;2023-05-25T04:47:57;100454.68;;;10.35;86.17
59073;BME280;44859;51.934;15.554;2023-05-25T04:51:08;100457.88;;;10.49;86.06
59073;BME280;44859;51.934;15.554;2023-05-25T04:54:58;100460.30;;;10.67;85.85
59073;BME280;44859;51.934;15.554;2023-05-25T04:58:11;100462.00;;;11.01;85.84
59073;BME280;44859;51.934;15.554;2023-05-25T05:01:28;100461.56;;;11.38;85.59
59073;BME280;44859;51.934;15.554;2023-05-25T05:04:36;100468.33;;;11.65;84.66
59073;BME280;44859;51.934;15.554;2023-05-25T05:11:55;100471.84;;;12.03;82.62
59073;BME280;44859;51.934;15.554;2023-05-25T05:18:11;100470.40;;;12.19;81.86
59073;BME280;44859;51.934;15.554;2023-05-25T05:21:29;100470.72;;;12.24;81.31
59073;BME280;44859;51.934;15.554;2023-05-25T05:24:29;100472.89;;;12.47;80.86
59073;BME280;44859;51.934;15.554;2023-05-25T05:27:21;100468.13;;;12.73;80.00
59073;BME280;44859;51.934;15.554;2023-05-25T05:29:59;100475.89;;;12.88;79.59
59073;BME280;44859;51.934;15.554;2023-05-25T05:33:42;100481.42;;;13.16;78.67
59073;BME280;44859;51.934;15.554;2023-05-25T05:37:03;100475.37;;;13.68;78.00
59073;BME280;44859;51.934;15.554;2023-05-25T05:39:38;100477.40;;;14.21;77.09
59073;BME280;44859;51.934;15.554;2023-05-25T05:49:57;100480.76;;;15.25;72.94
59073;BME280;44859;51.934;15.554;2023-05-25T05:52:50;100477.46;;;15.15;72.95
59073;BME280;44859;51.934;15.554;2023-05-25T05:55:40;100476.75;;;15.30;72.23
59073;BME280;44859;51.934;15.554;2023-05-25T05:58:27;100473.84;;;15.53;71.37
59073;BME280;44859;51.934;15.554;2023-05-25T06:01:05;100474.95;;;15.40;70.77
59073;BME280;44859;51.934;15.554;2023-05-25T06:06:44;100478.18;;;15.61;70.12
59073;BME280;44859;51.934;15.554;2023-05-25T06:09:13;100484.34;;;15.77;69.63
59073;BME280;44859;51.934;15.554;2023-05-25T06:11:41;100488.01;;;15.99;69.22
59073;BME280;44859;51.934;15.554;2023-05-25T06:14:10;100487.48;;;16.10;68.42
59073;BME280;44859;51.934;15.554;2023-05-25T06:20:13;100496.14;;;15.84;67.38
59073;BME280;44859;51.934;15.554;2023-05-25T06:22:42;100495.09;;;15.34;67.42
59073;BME280;44859;51.934;15.554;2023-05-25T06:25:16;100500.77;;;14.96;67.74
59073;BME280;44859;51.934;15.554;2023-05-25T06:28:07;100505.04;;;14.77;68.50
59073;BME280;44859;51.934;15.554;2023-05-25T06:33:54;100518.20;;;14.15;68.96
59073;BME280;44859;51.934;15.554;2023-05-25T06:36:22;100518.14;;;13.92;69.62
59073;BME280;44859;51.934;15.554;2023-05-25T06:39:12;100517.29;;;13.77;70.09
59073;BME280;44859;51.934;15.554;2023-05-25T06:41:46;100520.97;;;13.63;70.42
59073;BME280;44859;51.934;15.554;2023-05-25T06:44:21;100525.43;;;13.52;70.42
59073;BME280;44859;51.934;15.554;2023-05-25T06:54:46;100534.32;;;13.51;72.09
59073;BME280;44859;51.934;15.554;2023-05-25T07:01:15;100542.92;;;13.58;72.48
59073;BME280;44859;51.934;15.554;2023-05-25T07:04:05;100541.98;;;13.56;72.24
59073;BME280;44859;51.934;15.554;2023-05-25T07:06:51;100539.48;;;13.46;72.22
59073;BME280;44859;51.934;15.554;2023-05-25T07:09:43;100535.91;;;13.46;72.20
59073;BME280;44859;51.934;15.554;2023-05-25T07:12:37;100532.52;;;13.55;72.34
59073;BME280;44859;51.934;15.554;2023-05-25T07:15:10;100531.30;;;13.58;72.02
59073;BME280;44859;51.934;15.554;2023-05-25T07:17:52;100526.30;;;13.66;72.22
59073;BME280;44859;51.934;15.554;2023-05-25T07:20:23;100530.54;;;13.94;71.88
59073;BME280;44859;51.934;15.554;2023-05-25T07:23:30;100532.49;;;14.32;71.52
59073;BME280;44859;51.934;15.554;2023-05-25T07:26:32;100530.95;;;14.51;70.21
59073;BME280;44859;51.934;15.554;2023-05-25T07:32:17;100526.92;;;14.54;69.71
59073;BME280;44859;51.934;15.554;2023-05-25T07:34:47;100530.98;;;14.64;69.79
59073;BME280;44859;51.934;15.554;2023-05-25T07:37:18;100532.20;;;14.84;68.92
59073;BME280;44859;51.934;15.554;2023-05-25T07:43:19;100539.20;;;15.31;68.17
59073;BME280;44859;51.934;15.554;2023-05-25T07:46:14;100537.83;;;15.45;66.87
59073;BME280;44859;51.934;15.554;2023-05-25T07:49:07;100536.96;;;15.42;65.55
59073;BME280;44859;51.934;15.554;2023-05-25T07:54:47;100537.71;;;15.25;66.44
59073;BME280;44859;51.934;15.554;2023-05-25T07:57:22;100535.36;;;15.45;65.69
59073;BME280;44859;51.934;15.554;2023-05-25T08:03:33;100542.83;;;15.51;66.21
59073;BME280;44859;51.934;15.554;2023-05-25T08:06:19;100548.43;;;15.89;66.15
59073;BME280;44859;51.934;15.554;2023-05-25T08:09:08;100546.60;;;16.17;65.87
59073;BME280;44859;51.934;15.554;2023-05-25T08:11:58;100549.30;;;16.75;64.95
59073;BME280;44859;51.934;15.554;2023-05-25T08:17:45;100554.09;;;16.22;63.75
59073;BME280;44859;51.934;15.554;2023-05-25T08:20:19;100549.56;;;16.06;63.78
59073;BME280;44859;51.934;15.554;2023-05-25T08:23:02;100544.36;;;16.13;63.84
59073;BME280;44859;51.934;15.554;2023-05-25T08:26:16;100541.38;;;16.07;63.10
59073;BME280;44859;51.934;15.554;2023-05-25T08:29:27;100544.73;;;16.28;63.46
59073;BME280;44859;51.934;15.554;2023-05-25T08:32:22;100547.76;;;16.74;63.67
59073;BME280;44859;51.934;15.554;2023-05-25T08:34:59;100550.84;;;16.96;62.43
59073;BME280;44859;51.934;15.554;2023-05-25T08:38:03;100546.11;;;16.92;61.57
59073;BME280;44859;51.934;15.554;2023-05-25T08:41:15;100544.41;;;16.96;61.82
59073;BME280;44859;51.934;15.554;2023-05-25T08:47:21;100538.66;;;17.50;60.17
59073;BME280;44859;51.934;15.554;2023-05-25T08:50:14;100539.70;;;17.47;59.59
59073;BME280;44859;51.934;15.554;2023-05-25T08:53:10;100544.40;;;17.05;59.31
59073;BME280;44859;51.934;15.554;2023-05-25T08:55:48;100544.46;;;16.58;59.89
59073;BME280;44859;51.934;15.554;2023-05-25T08:58:31;100542.52;;;16.58;60.52
59073;BME280;44859;51.934;15.554;2023-05-25T09:01:03;100545.41;;;16.89;60.20
59073;BME280;44859;51.934;15.554;2023-05-25T09:03:37;100546.23;;;17.04;59.67
59073;BME280;44859;51.934;15.554;2023-05-25T09:06:07;100551.38;;;17.07;59.36
59073;BME280;44859;51.934;15.554;2023-05-25T09:08:38;100549.13;;;16.95;58.99
59073;BME280;44859;51.934;15.554;2023-05-25T09:11:28;100550.74;;;16.91;59.12
59073;BME280;44859;51.934;15.554;2023-05-25T09:17:14;100549.54;;;17.68;57.71
59073;BME280;44859;51.934;15.554;2023-05-25T09:22:49;100550.96;;;17.87;56.87
59073;BME280;44859;51.934;15.554;2023-05-25T09:25:28;100554.08;;;17.88;57.13
59073;BME280;44859;51.934;15.554;2023-05-25T09:28:29;100560.55;;;17.55;57.54
59073;BME280;44859;51.934;15.554;2023-05-25T09:31:07;100560.42;;;17.26;58.33
59073;BME280;44859;51.934;15.554;2023-05-25T09:33:38;100556.05;;;17.58;59.06
59073;BME280;44859;51.934;15.554;2023-05-25T09:36:12;100551.94;;;17.88;58.74
59073;BME280;44859;51.934;15.554;2023-05-25T09:38:53;100554.55;;;17.78;57.70
59073;BME280;44859;51.934;15.554;2023-05-25T09:41:23;100555.27;;;17.65;58.22
59073;BME280;44859;51.934;15.554;2023-05-25T09:46:45;100552.48;;;17.53;58.10
59073;BME280;44859;51.934;15.554;2023-05-25T09:49:30;100548.60;;;17.74;56.49
59073;BME280;44859;51.934;15.554;2023-05-25T09:52:09;100553.36;;;17.83;56.27
59073;BME280;44859;51.934;15.554;2023-05-25T09:55:12;100549.42;;;18.12;56.78
59073;BME280;44859;51.934;15.554;2023-05-25T10:00:39;100546.73;;;18.62;53.61
59073;BME280;44859;51.934;15.554;2023-05-25T10:03:14;100549.75;;;18.31;53.30
59073;BME280;44859;51.934;15.554;2023-05-25T10:05:51;100550.85;;;18.13;53.98
59073;BME280;44859;51.934;15.554;2023-05-25T10:08:30;100555.70;;;17.88;54.08
59073;BME280;44859;51.934;15.554;2023-05-25T10:11:34;100551.55;;;17.78;54.63
59073;BME280;44859;51.934;15.554;2023-05-25T10:14:06;100550.88;;;18.12;54.24
59073;BME280;44859;51.934;15.554;2023-05-25T10:16:47;100549.77;;;18.52;53.57
59073;BME280;44859;51.934;15.554;2023-05-25T10:20:02;100553.54;;;18.36;50.99
59073;BME280;44859;51.934;15.554;2023-05-25T10:22:45;100556.93;;;17.85;52.95
59073;BME280;44859;51.934;15.554;2023-05-25T10:25:27;100557.55;;;17.71;53.52
59073;BME280;44859;51.934;15.554;2023-05-25T10:28:27;100553.16;;;18.10;52.93
59073;BME280;44859;51.934;15.554;2023-05-25T10:34:21;100546.29;;;19.01;51.26
59073;BME280;44859;51.934;15.554;2023-05-25T10:37:19;100539.73;;;19.23;50.50
59073;BME280;44859;51.934;15.554;2023-05-25T10:39:48;100538.27;;;19.38;50.59
59073;BME280;44859;51.934;15.554;2023-05-25T10:42:33;100537.11;;;19.47;50.29
59073;BME280;44859;51.934;15.554;2023-05-25T10:45:34;100545.25;;;18.93;49.68
59073;BME280;44859;51.934;15.554;2023-05-25T10:48:03;100547.73;;;18.37;49.90
59073;BME280;44859;51.934;15.554;2023-05-25T10:50:53;100545.86;;;17.97;50.88
59073;BME280;44859;51.934;15.554;2023-05-25T10:53:29;100543.20;;;18.13;51.75
59073;BME280;44859;51.934;15.554;2023-05-25T10:56:07;100536.02;;;18.60;50.94
59073;BME280;44859;51.934;15.554;2023-05-25T10:59:00;100540.38;;;19.01;51.20
59073;BME280;44859;51.934;15.554;2023-05-25T11:12:21;100529.45;;;19.95;47.25
59073;BME280;44859;51.934;15.554;2023-05-25T11:15:11;100525.24;;;19.94;46.66
59073;BME280;44859;51.934;15.554;2023-05-25T11:18:47;100528.45;;;19.92;46.59
59073;BME280;44859;51.934;15.554;2023-05-25T11:21:41;100527.27;;;20.04;47.12
59073;BME280;44859;51.934;15.554;2023-05-25T11:24:51;100523.07;;;20.42;47.49
59073;BME280;44859;51.934;15.554;2023-05-25T11:27:23;100523.27;;;20.68;46.28
59073;BME280;44859;51.934;15.554;2023-05-25T11:30:41;100516.30;;;20.19;45.21
59073;BME280;44859;51.934;15.554;2023-05-25T11:32:53;100515.98;;;19.67;46.43
59073;BME280;44859;51.934;15.554;2023-05-25T11:36:03;100518.73;;;20.07;47.52
59073;BME280;44859;51.934;15.554;2023-05-25T11:39:08;100521.20;;;20.64;46.37
59073;BME280;44859;51.934;15.554;2023-05-25T11:41:53;100520.87;;;20.73;45.41
59073;BME280;44859;51.934;15.554;2023-05-25T11:44:48;100517.36;;;20.22;44.36
59073;BME280;44859;51.934;15.554;2023-05-25T11:47:45;100518.27;;;19.77;44.98
59073;BME280;44859;51.934;15.554;2023-05-25T11:50:17;100511.92;;;19.98;45.65
59073;BME280;44859;51.934;15.554;2023-05-25T11:52:57;100503.73;;;20.23;46.17
59073;BME280;44859;51.934;15.554;2023-05-25T11:58:35;100500.50;;;19.91;46.16
59073;BME280;44859;51.934;15.554;2023-05-25T12:03:57;100496.09;;;19.62;46.50
59073;BME280;44859;51.934;15.554;2023-05-25T12:06:44;100496.23;;;19.74;46.86
59073;BME280;44859;51.934;15.554;2023-05-25T12:09:21;100498.05;;;19.73;46.43
59073;BME280;44859;51.934;15.554;2023-05-25T12:12:14;100497.05;;;19.94;46.85
59073;BME280;44859;51.934;15.554;2023-05-25T12:14:48;100491.24;;;20.02;45.56
59073;BME280;44859;51.934;15.554;2023-05-25T12:20:42;100486.63;;;20.21;46.78
59073;BME280;44859;51.934;15.554;2023-05-25T12:23:48;100485.72;;;20.66;47.00
59073;BME280;44859;51.934;15.554;2023-05-25T12:26:52;100493.37;;;20.93;45.88
59073;BME280;44859;51.934;15.554;2023-05-25T12:30:27;100484.84;;;21.06;45.11
59073;BME280;44859;51.934;15.554;2023-05-25T12:36:03;100475.80;;;21.10;43.79
59073;BME280;44859;51.934;15.554;2023-05-25T12:38:31;100478.36;;;20.89;43.74
59073;BME280;44859;51.934;15.554;2023-05-25T12:41:06;100475.40;;;20.70;43.84
59073;BME280;44859;51.934;15.554;2023-05-25T12:43:48;100479.79;;;20.67;44.93
59073;BME280;44859;51.934;15.554;2023-05-25T12:47:08;100472.34;;;20.91;44.04
59073;BME280;44859;51.934;15.554;2023-05-25T12:49:44;100476.73;;;20.64;44.32
59073;BME280;44859;51.934;15.554;2023-05-25T12:53:02;100466.64;;;20.32;43.69
59073;BME280;44859;51.934;15.554;2023-05-25T12:56:02;100467.07;;;19.97;44.70
59073;BME280;44859;51.934;15.554;2023-05-25T12:58:39;100468.70;;;19.87;45.19
59073;BME280;44859;51.934;15.554;2023-05-25T13:01:28;100463.38;;;19.75;45.55
59073;BME280;44859;51.934;15.554;2023-05-25T13:04:52;100462.58;;;19.81;45.92
59073;BME280;44859;51.934;15.554;2023-05-25T13:07:27;100457.97;;;20.22;45.82
59073;BME280;44859;51.934;15.554;2023-05-25T13:10:04;100453.17;;;20.47;44.53
59073;BME280;44859;51.934;15.554;2023-05-25T13:12:49;100454.13;;;20.57;44.54
59073;BME280;44859;51.934;15.554;2023-05-25T13:15:27;100446.77;;;20.82;44.52
59073;BME280;44859;51.934;15.554;2023-05-25T13:18:28;100446.35;;;20.92;44.22
59073;BME280;44859;51.934;15.554;2023-05-25T13:21:16;100449.39;;;21.01;44.15
59073;BME280;44859;51.934;15.554;2023-05-25T13:24:07;100450.17;;;21.11;44.18
59073;BME280;44859;51.934;15.554;2023-05-25T13:26:37;100450.91;;;21.19;44.85
59073;BME280;44859;51.934;15.554;2023-05-25T13:29:09;100451.73;;;21.33;44.12
59073;BME280;44859;51.934;15.554;2023-05-25T13:31:41;100444.76;;;21.42;43.95
59073;BME280;44859;51.934;15.554;2023-05-25T13:34:11;100450.64;;;21.24;43.12
59073;BME280;44859;51.934;15.554;2023-05-25T13:36:40;100448.23;;;20.89;43.16
59073;BME280;44859;51.934;15.554;2023-05-25T13:39:09;100445.03;;;20.77;43.23
59073;BME280;44859;51.934;15.554;2023-05-25T13:41:40;100445.92;;;20.71;42.50
59073;BME280;44859;51.934;15.554;2023-05-25T13:44:17;100437.80;;;20.68;43.28
59073;BME280;44859;51.934;15.554;2023-05-25T13:46:45;100437.45;;;20.79;43.78
59073;BME280;44859;51.934;15.554;2023-05-25T13:49:17;100437.22;;;21.05;44.12
59073;BME280;44859;51.934;15.554;2023-05-25T13:51:59;100438.73;;;21.24;43.94
59073;BME280;44859;51.934;15.554;2023-05-25T13:54:39;100440.73;;;21.34;43.27
59073;BME280;44859;51.934;15.554;2023-05-25T13:57:07;100432.87;;;21.34;42.78
59073;BME280;44859;51.934;15.554;2023-05-25T13:59:36;100439.14;;;21.21;42.67
59073;BME280;44859;51.934;15.554;2023-05-25T14:02:14;100438.01;;;21.02;42.81
59073;BME280;44859;51.934;15.554;2023-05-25T14:04:43;100433.40;;;20.76;42.47
59073;BME280;44859;51.934;15.554;2023-05-25T14:07:13;100437.80;;;20.33;42.79
59073;BME280;44859;51.934;15.554;2023-05-25T14:09:54;100436.96;;;19.94;43.60
59073;BME280;44859;51.934;15.554;2023-05-25T14:12:37;100434.41;;;19.71;44.16
59073;BME280;44859;51.934;15.554;2023-05-25T14:15:07;100433.32;;;19.77;44.61
59073;BME280;44859;51.934;15.554;2023-05-25T14:17:35;100428.80;;;19.99;44.62
59073;BME280;44859;51.934;15.554;2023-05-25T14:20:05;100430.63;;;20.23;44.66
59073;BME280;44859;51.934;15.554;2023-05-25T14:22:37;100431.98;;;20.51;43.78
59073;BME280;44859;51.934;15.554;2023-05-25T14:25:08;100431.02;;;20.56;43.51
59073;BME280;44859;51.934;15.554;2023-05-25T14:27:37;100428.55;;;20.58;43.42
59073;BME280;44859;51.934;15.554;2023-05-25T14:30:06;100427.73;;;20.64;43.67
59073;BME280;44859;51.934;15.554;2023-05-25T14:32:38;100428.33;;;20.77;43.27
59073;BME280;44859;51.934;15.554;2023-05-25T14:35:28;100430.47;;;20.70;42.92
59073;BME280;44859;51.934;15.554;2023-05-25T14:37:56;100433.38;;;20.35;42.31
59073;BME280;44859;51.934;15.554;2023-05-25T14:40:45;100433.77;;;20.05;42.78
59073;BME280;44859;51.934;15.554;2023-05-25T14:43:17;100426.85;;;19.96;43.12
59073;BME280;44859;51.934;15.554;2023-05-25T14:45:45;100425.46;;;19.93;43.13
59073;BME280;44859;51.934;15.554;2023-05-25T14:48:14;100418.03;;;19.92;42.95
59073;BME280;44859;51.934;15.554;2023-05-25T14:50:44;100416.30;;;19.96;43.19
59073;BME280;44859;51.934;15.554;2023-05-25T14:53:13;100416.52;;;19.91;42.61
59073;BME280;44859;51.934;15.554;2023-05-25T14:56:06;100418.61;;;20.01;42.60
59073;BME280;44859;51.934;15.554;2023-05-25T14:58:57;100418.73;;;19.95;42.33
59073;BME280;44859;51.934;15.554;2023-05-25T15:01:32;100417.85;;;19.92;43.10
59073;BME280;44859;51.934;15.554;2023-05-25T15:04:28;100416.87;;;19.85;43.27
59073;BME280;44859;51.934;15.554;2023-05-25T15:07:11;100411.07;;;19.67;43.09
59073;BME280;44859;51.934;15.554;2023-05-25T15:09:42;100408.12;;;19.61;43.66
59073;BME280;44859;51.934;15.554;2023-05-25T15:12:14;100412.80;;;19.69;43.96
59073;BME280;44859;51.934;15.554;2023-05-25T15:14:43;100406.92;;;19.80;43.60
59073;BME280;44859;51.934;15.554;2023-05-25T15:17:21;100404.08;;;19.60;43.20
59073;BME280;44859;51.934;15.554;2023-05-25T15:19:50;100406.23;;;19.44;43.62
59073;BME280;44859;51.934;15.554;2023-05-25T15:22:22;100406.14;;;19.45;44.25
59073;BME280;44859;51.934;15.554;2023-05-25T15:24:51;100401.05;;;19.53;43.79
59073;BME280;44859;51.934;15.554;2023-05-25T15:27:19;100402.94;;;19.54;43.95
59073;BME280;44859;51.934;15.554;2023-05-25T15:29:48;100401.35;;;19.66;44.22
59073;BME280;44859;51.934;15.554;2023-05-25T15:32:17;100398.29;;;19.66;43.58
59073;BME280;44859;51.934;15.554;2023-05-25T15:34:48;100398.16;;;19.61;43.03
59073;BME280;44859;51.934;15.554;2023-05-25T15:37:17;100397.45;;;19.58;43.66
59073;BME280;44859;51.934;15.554;2023-05-25T15:39:48;100401.98;;;19.60;43.66
59073;BME280;44859;51.934;15.554;2023-05-25T15:42:20;100404.34;;;19.62;43.56
59073;BME280;44859;51.934;15.554;2023-05-25T15:44:50;100401.27;;;19.62;43.40
59073;BME280;44859;51.934;15.554;2023-05-25T15:47:19;100401.08;;;19.53;43.36
59073;BME280;44859;51.934;15.554;2023-05-25T15:49:56;100401.67;;;19.50;43.22
59073;BME280;44859;51.934;15.554;2023-05-25T15:52:25;100401.73;;;19.47;43.54
59073;BME280;44859;51.934;15.554;2023-05-25T15:54:54;100400.12;;;19.49;43.63
59073;BME280;44859;51.934;15.554;2023-05-25T15:57:25;100397.05;;;19.48;43.48
59073;BME280;44859;51.934;15.554;2023-05-25T15:59:57;100393.58;;;19.39;43.70
59073;BME280;44859;51.934;15.554;2023-05-25T16:02:33;100387.27;;;19.35;43.87
59073;BME280;44859;51.934;15.554;2023-05-25T16:05:13;100381.00;;;19.36;43.79
59073;BME280;44859;51.934;15.554;2023-05-25T16:08:00;100386.09;;;19.39;44.08
59073;BME280;44859;51.934;15.554;2023-05-25T16:10:45;100386.42;;;19.47;44.68
59073;BME280;44859;51.934;15.554;2023-05-25T16:13:17;100392.73;;;19.51;44.38
59073;BME280;44859;51.934;15.554;2023-05-25T16:18:48;100397.61;;;19.50;44.11
59073;BME280;44859;51.934;15.554;2023-05-25T16:21:25;100395.55;;;19.46;44.38